Garden Hill, Illinois
Current Conditions -  °F | °C
As of 2:15 AM on Friday 31 Oct 2014 (Local Time) from KFOA Reporting Station
Clear Clear  
Wind Chill: 47°   Ceiling: Unl
Heat Index: 47°   Visibility: 10mi
Dew Point: 45°   Wind: 0mph
Humidity: 93%   Direction: NA
Pressure: 30.04"   Gusts: NA
Location:  38.6949°N, 88.6407°W
Report Text: KFOA 310715Z AUTO 00000KT 10SM CLR 08/07 A3004 RMK AO2 T00830073
Loading
Personal Weather Stations






























Interactive Weather Map New forecast layout! Learn more

10-Day Weather Forecast

Advertisements
Track Severe Weather on mobile